createdAt,value
2023-05-01T00:00:06.376Z,96205.63
2023-05-01T00:02:34.759Z,96204.16
2023-05-01T00:05:03.251Z,96195.50
2023-05-01T00:07:31.960Z,96198.09
2023-05-01T00:10:00.377Z,96183.69
2023-05-01T00:12:28.784Z,96195.47
2023-05-01T00:14:58.424Z,96192.13
2023-05-01T00:17:27.190Z,96191.91
2023-05-01T00:19:55.838Z,96190.47
2023-05-01T00:22:24.373Z,96186.44
2023-05-01T00:24:52.665Z,96182.56
2023-05-01T00:27:20.978Z,96183.63
2023-05-01T00:29:49.548Z,96175.00
2023-05-01T00:32:19.678Z,96170.81
2023-05-01T00:34:48.499Z,96164.28
2023-05-01T00:37:17.540Z,96166.41
2023-05-01T00:39:45.863Z,96155.09
2023-05-01T00:42:14.114Z,96160.31
2023-05-01T00:44:42.423Z,96153.94
2023-05-01T00:47:10.653Z,96158.41
2023-05-01T00:49:42.850Z,96158.72
2023-05-01T00:52:11.412Z,96155.38
2023-05-01T00:54:40.738Z,96152.97
2023-05-01T00:57:09.566Z,96154.63
2023-05-01T00:59:39.396Z,96146.41
2023-05-01T01:02:07.826Z,96144.91
2023-05-01T01:04:36.077Z,96149.22
2023-05-01T01:07:11.578Z,96148.69
2023-05-01T01:09:45.291Z,96135.59
2023-05-01T01:12:20.465Z,96136.25
2023-05-01T01:14:51.990Z,96138.88
2023-05-01T01:17:29.725Z,96143.13
2023-05-01T01:20:26.232Z,96129.78
2023-05-01T01:23:12.369Z,96131.13
2023-05-01T01:26:01.269Z,96129.91
2023-05-01T01:28:40.899Z,96128.31
2023-05-01T01:31:15.621Z,96129.09
2023-05-01T01:34:07.725Z,96131.03
2023-05-01T01:36:41.462Z,96124.53
2023-05-01T01:39:12.986Z,96126.75
2023-05-01T01:41:42.487Z,96120.28
2023-05-01T01:44:14.506Z,96118.69
2023-05-01T01:46:44.003Z,96115.13
2023-05-01T01:49:20.260Z,96111.97
2023-05-01T01:51:50.057Z,96126.28
2023-05-01T01:54:21.086Z,96118.94
2023-05-01T01:56:50.165Z,96121.63
2023-05-01T01:59:20.121Z,96119.47
2023-05-01T02:01:49.031Z,96114.06
2023-05-01T02:04:19.407Z,96113.63
2023-05-01T02:06:48.502Z,96105.44
2023-05-01T02:09:18.049Z,96107.00
2023-05-01T02:11:48.164Z,96106.72
2023-05-01T02:14:17.482Z,96105.56
2023-05-01T02:16:46.254Z,96100.22
2023-05-01T02:19:15.939Z,96096.31
2023-05-01T02:21:46.721Z,96093.59
2023-05-01T02:24:15.347Z,96091.53
2023-05-01T02:26:45.546Z,96090.38
2023-05-01T02:29:13.826Z,96085.41
2023-05-01T02:31:42.102Z,96084.06
2023-05-01T02:34:10.513Z,96089.03
2023-05-01T02:36:39.000Z,96085.78
2023-05-01T02:39:08.610Z,96090.34
2023-05-01T02:41:38.410Z,96089.81
2023-05-01T02:44:08.741Z,96076.53
2023-05-01T02:46:38.169Z,96090.28
2023-05-01T02:49:07.035Z,96078.81
2023-05-01T02:51:35.630Z,96077.56
2023-05-01T02:54:04.294Z,96080.84
2023-05-01T02:56:33.983Z,96076.34
2023-05-01T02:59:02.194Z,96061.78
2023-05-01T03:01:30.442Z,96066.28
2023-05-01T03:03:58.863Z,96063.00
2023-05-01T03:06:29.306Z,96062.84
2023-05-01T03:08:57.647Z,96058.94
2023-05-01T03:11:25.894Z,96056.53
2023-05-01T03:13:55.494Z,96054.84
2023-05-01T03:16:23.793Z,96060.13
2023-05-01T03:18:52.064Z,96056.91
2023-05-01T03:21:20.616Z,96060.66
2023-05-01T03:23:49.144Z,96055.81
2023-05-01T03:26:17.341Z,96049.72
2023-05-01T03:28:45.811Z,96066.13
2023-05-01T03:31:15.419Z,96049.44
2023-05-01T03:33:43.702Z,96059.13
2023-05-01T03:36:12.131Z,96057.13
2023-05-01T03:38:40.387Z,96051.56
2023-05-01T03:41:08.935Z,96048.13
2023-05-01T03:43:37.302Z,96051.13
2023-05-01T03:46:05.607Z,96048.22
2023-05-01T03:48:35.331Z,96047.06
2023-05-01T03:51:03.589Z,96036.44
2023-05-01T03:53:32.592Z,96039.81
2023-05-01T03:56:00.879Z,96040.72
2023-05-01T03:58:29.184Z,96035.41
2023-05-01T04:01:00.860Z,96037.19
2023-05-01T04:03:29.632Z,96035.38
2023-05-01T04:05:59.536Z,96036.19
2023-05-01T04:08:27.937Z,96026.38
2023-05-01T04:10:56.274Z,96034.94
2023-05-01T04:13:24.564Z,96032.44
2023-05-01T04:15:55.280Z,96029.75
2023-05-01T04:18:23.611Z,96034.69
2023-05-01T04:20:52.307Z,96031.88
2023-05-01T04:23:23.188Z,96033.09
2023-05-01T04:25:52.984Z,96032.91
2023-05-01T04:28:21.490Z,96031.69
2023-05-01T04:30:50.415Z,96041.94
2023-05-01T04:33:18.730Z,96039.88
2023-05-01T04:35:47.080Z,96037.69
2023-05-01T04:38:15.356Z,96036.34
2023-05-01T04:40:45.048Z,96042.91
2023-05-01T04:43:13.273Z,96038.00
2023-05-01T04:45:41.656Z,96039.06
2023-05-01T04:48:09.921Z,96044.13
2023-05-01T04:50:38.465Z,96049.66
2023-05-01T04:53:06.763Z,96046.22
2023-05-01T04:55:35.141Z,96041.47
2023-05-01T04:58:04.949Z,96040.66
2023-05-01T05:00:33.648Z,96044.63
2023-05-01T05:03:01.995Z,96043.22
2023-05-01T05:05:30.446Z,96039.16
2023-05-01T05:07:59.223Z,96037.91
2023-05-01T05:10:27.479Z,96036.13
2023-05-01T05:12:55.774Z,96032.84
2023-05-01T05:15:25.516Z,96040.50
2023-05-01T05:17:56.363Z,96033.66
2023-05-01T05:20:24.883Z,96029.84
2023-05-01T05:22:53.117Z,96025.72
2023-05-01T05:25:21.539Z,96027.13
2023-05-01T05:27:49.815Z,96027.16
2023-05-01T05:30:18.181Z,96027.19
2023-05-01T05:32:48.858Z,96024.69
2023-05-01T05:35:17.231Z,96039.59
2023-05-01T05:37:46.207Z,96026.63
2023-05-01T05:40:14.882Z,96034.69
2023-05-01T05:42:43.119Z,96033.81
2023-05-01T05:45:11.843Z,96022.75
2023-05-01T05:47:40.918Z,96020.47
2023-05-01T05:50:11.477Z,96029.34
2023-05-01T05:52:39.732Z,96031.94
2023-05-01T05:55:08.741Z,96032.31
2023-05-01T05:57:37.816Z,96035.63
2023-05-01T06:00:07.314Z,96039.47
2023-05-01T06:02:35.613Z,96032.84
2023-05-01T06:05:04.078Z,96029.84
2023-05-01T06:07:33.707Z,96025.44
2023-05-01T06:10:05.303Z,96026.31
2023-05-01T06:12:35.736Z,96026.25
2023-05-01T06:15:06.701Z,96034.00
2023-05-01T06:17:36.113Z,96033.91
2023-05-01T06:20:06.377Z,96033.78
2023-05-01T06:22:35.982Z,96040.28
2023-05-01T06:25:04.296Z,96034.34
2023-05-01T06:27:32.497Z,96035.47
2023-05-01T06:30:00.760Z,96036.47
2023-05-01T06:32:29.049Z,96033.06
2023-05-01T06:34:57.462Z,96040.22
2023-05-01T06:37:25.804Z,96038.78
2023-05-01T06:39:56.000Z,96036.00
2023-05-01T06:42:24.516Z,96038.63
2023-05-01T06:44:52.768Z,96038.69
2023-05-01T06:47:21.870Z,96047.16
2023-05-01T06:49:50.288Z,96031.56
2023-05-01T06:52:18.570Z,96032.53
2023-05-01T06:54:46.935Z,96030.88
2023-05-01T06:57:16.669Z,96033.06
2023-05-01T06:59:45.253Z,96033.69
2023-05-01T07:02:13.585Z,96026.31
2023-05-01T07:04:41.918Z,96025.16
2023-05-01T07:07:10.163Z,96031.31
2023-05-01T07:09:38.809Z,96033.69
2023-05-01T07:12:07.250Z,96024.59
2023-05-01T07:14:37.189Z,96043.34
2023-05-01T07:17:05.880Z,96024.28
2023-05-01T07:19:34.144Z,96021.56
2023-05-01T07:22:03.258Z,96029.94
2023-05-01T07:24:31.508Z,96021.09
2023-05-01T07:26:59.981Z,96021.69
2023-05-01T07:29:28.228Z,96020.56
2023-05-01T07:31:58.425Z,96025.78
2023-05-01T07:34:26.740Z,96018.72
2023-05-01T07:36:55.215Z,96030.44
2023-05-01T07:39:23.460Z,96025.03
2023-05-01T07:41:51.720Z,96029.09
2023-05-01T07:44:19.977Z,96020.53
2023-05-01T07:46:48.213Z,96021.53
2023-05-01T07:49:17.815Z,96019.06
2023-05-01T07:51:46.105Z,96023.03
2023-05-01T07:54:16.163Z,96021.91
2023-05-01T07:56:44.452Z,96020.69
2023-05-01T07:59:12.703Z,96027.25
2023-05-01T08:01:41.294Z,96028.84
2023-05-01T08:04:09.618Z,96036.63
2023-05-01T08:06:39.761Z,96031.81
2023-05-01T08:09:11.065Z,96035.25
2023-05-01T08:11:39.573Z,96029.94
2023-05-01T08:14:08.343Z,96038.00
2023-05-01T08:16:36.962Z,96034.31
2023-05-01T08:19:05.729Z,96047.53
2023-05-01T08:21:34.021Z,96051.19
2023-05-01T08:24:03.859Z,96045.78
2023-05-01T08:26:32.176Z,96054.00
2023-05-01T08:29:00.473Z,96052.72
2023-05-01T08:31:28.809Z,96045.16
2023-05-01T08:33:57.229Z,96047.25
2023-05-01T08:36:25.440Z,96040.47
2023-05-01T08:38:54.128Z,96042.97
2023-05-01T08:41:23.889Z,96041.50
2023-05-01T08:43:52.193Z,96048.38
2023-05-01T08:46:27.821Z,96043.91
2023-05-01T08:48:58.634Z,96047.34
2023-05-01T08:51:27.197Z,96050.63
2023-05-01T08:53:56.753Z,96062.38
2023-05-01T08:56:26.598Z,96054.72
2023-05-01T08:58:55.318Z,96055.25
2023-05-01T09:01:23.642Z,96067.63
2023-05-01T09:03:52.369Z,96059.75
2023-05-01T09:06:21.575Z,96061.44
2023-05-01T09:08:49.882Z,96060.81
2023-05-01T09:11:18.233Z,96063.59
2023-05-01T09:13:48.220Z,96054.69
2023-05-01T09:16:16.620Z,96064.31
2023-05-01T09:18:45.017Z,96067.63
2023-05-01T09:21:13.373Z,96062.03
2023-05-01T09:23:41.677Z,96073.47
2023-05-01T09:26:09.895Z,96068.16
2023-05-01T09:28:42.709Z,96070.56
2023-05-01T09:31:26.533Z,96072.47
2023-05-01T09:33:55.836Z,96061.31
2023-05-01T09:36:25.003Z,96072.41
2023-05-01T09:38:53.428Z,96070.63
2023-05-01T09:41:24.588Z,96069.63
2023-05-01T09:43:53.829Z,96072.13
2023-05-01T09:46:24.659Z,96074.28
2023-05-01T09:48:57.109Z,96073.47
2023-05-01T09:51:27.836Z,96072.78
2023-05-01T09:53:57.296Z,96081.75
2023-05-01T09:56:27.176Z,96076.81
2023-05-01T09:58:56.585Z,96078.69
2023-05-01T10:01:44.335Z,96074.88
2023-05-01T10:04:13.227Z,96096.16
2023-05-01T10:06:42.296Z,96076.59
2023-05-01T10:09:16.681Z,96082.72
2023-05-01T10:11:52.205Z,96087.03
2023-05-01T10:14:21.281Z,96086.53
2023-05-01T10:16:52.905Z,96085.16
2023-05-01T10:19:22.243Z,96084.47
2023-05-01T10:21:50.702Z,96089.72
2023-05-01T10:24:19.039Z,96087.50
2023-05-01T10:26:49.680Z,96098.16
2023-05-01T10:29:18.010Z,96086.47
2023-05-01T10:34:19.461Z,96102.97
2023-05-01T10:36:54.877Z,96095.47
2023-05-01T10:39:41.020Z,96088.72
2023-05-01T10:42:14.351Z,96099.16
2023-05-01T10:44:43.658Z,96099.09
2023-05-01T10:47:45.190Z,96105.09
2023-05-01T10:50:16.163Z,96098.91
2023-05-01T10:53:18.863Z,96100.75
2023-05-01T10:55:49.206Z,96096.38
2023-05-01T10:58:51.876Z,96086.97
2023-05-01T11:01:31.198Z,96083.31
2023-05-01T11:04:00.188Z,96086.50
2023-05-01T11:06:30.100Z,96087.91
2023-05-01T11:08:58.568Z,96080.06
2023-05-01T11:11:51.654Z,96082.66
2023-05-01T11:14:19.974Z,96088.78
2023-05-01T11:16:49.412Z,96082.22
2023-05-01T11:19:47.629Z,96072.34
2023-05-01T11:22:17.881Z,96083.31
2023-05-01T11:24:46.236Z,96071.19
2023-05-01T11:27:15.869Z,96071.84
2023-05-01T11:29:46.678Z,96072.78
2023-05-01T11:32:19.198Z,96078.19
2023-05-01T11:34:48.124Z,96076.88
2023-05-01T11:37:17.781Z,96081.47
2023-05-01T11:39:50.498Z,96084.91
2023-05-01T11:42:22.389Z,96076.06
2023-05-01T11:45:11.900Z,96081.81
2023-05-01T11:47:40.598Z,96082.53
2023-05-01T11:50:11.012Z,96074.53
2023-05-01T11:52:49.408Z,96076.81
2023-05-01T11:55:17.817Z,96074.47
2023-05-01T11:57:47.308Z,96073.25
2023-05-01T12:00:17.145Z,96063.13
2023-05-01T12:02:58.358Z,96076.84
2023-05-01T12:05:27.624Z,96081.66
2023-05-01T12:08:12.627Z,96072.59
2023-05-01T12:10:43.117Z,96080.34
2023-05-01T12:13:11.673Z,96074.75
2023-05-01T12:15:42.588Z,96081.53
2023-05-01T12:18:11.032Z,96081.38
2023-05-01T12:20:40.397Z,96079.03
2023-05-01T12:23:12.182Z,96077.59
2023-05-01T12:25:41.447Z,96082.31
2023-05-01T12:28:11.556Z,96090.66
2023-05-01T12:30:41.423Z,96086.13
2023-05-01T12:33:11.607Z,96087.78
2023-05-01T12:35:40.685Z,96088.22
2023-05-01T12:38:14.363Z,96085.94
2023-05-01T12:40:52.645Z,96087.25
2023-05-01T12:43:21.606Z,96084.63
2023-05-01T12:45:53.631Z,96085.25
2023-05-01T12:48:22.211Z,96086.50
2023-05-01T12:50:54.764Z,96080.38
2023-05-01T12:53:25.414Z,96082.63
2023-05-01T12:55:55.285Z,96078.44
2023-05-01T12:58:23.960Z,96077.09
2023-05-01T13:00:53.558Z,96078.13
2023-05-01T13:03:25.072Z,96078.56
2023-05-01T13:05:55.157Z,96073.78
2023-05-01T13:08:29.275Z,96082.66
2023-05-01T13:10:58.401Z,96074.81
2023-05-01T13:13:31.727Z,96063.25
2023-05-01T13:16:08.855Z,96063.88
2023-05-01T13:18:44.652Z,96064.34
2023-05-01T13:21:15.717Z,96062.91
2023-05-01T13:23:53.563Z,96063.16
2023-05-01T13:26:26.958Z,96060.72
2023-05-01T13:28:55.461Z,96062.22
2023-05-01T13:31:24.024Z,96062.34
2023-05-01T13:33:53.556Z,96061.94
2023-05-01T13:36:26.956Z,96062.69
2023-05-01T13:38:57.657Z,96067.13
2023-05-01T13:41:27.937Z,96069.38
2023-05-01T13:43:57.580Z,96070.66
2023-05-01T13:46:27.393Z,96069.00
2023-05-01T13:48:56.323Z,96068.75
2023-05-01T13:51:26.429Z,96067.28
2023-05-01T13:53:57.425Z,96067.22
2023-05-01T13:56:26.143Z,96068.03
2023-05-01T13:58:54.476Z,96069.25
2023-05-01T14:01:23.988Z,96060.75
2023-05-01T14:03:52.609Z,96070.59
2023-05-01T14:06:22.114Z,96060.59
2023-05-01T14:08:52.573Z,96059.06
2023-05-01T14:11:22.018Z,96061.53
2023-05-01T14:13:51.611Z,96056.84
2023-05-01T14:16:24.406Z,96064.06
2023-05-01T14:18:56.796Z,96061.81
2023-05-01T14:21:27.363Z,96054.91
2023-05-01T14:23:56.699Z,96056.78
2023-05-01T14:26:26.754Z,96061.00
2023-05-01T14:28:55.650Z,96057.97
2023-05-01T14:31:28.482Z,96064.31
2023-05-01T14:33:59.858Z,96053.75
2023-05-01T14:36:31.093Z,96059.94
2023-05-01T14:39:00.086Z,96062.50
2023-05-01T14:41:30.431Z,96072.31
2023-05-01T14:43:58.748Z,96060.72
2023-05-01T14:46:30.841Z,96058.84
2023-05-01T14:48:59.784Z,96055.06
2023-05-01T14:51:28.665Z,96057.22
2023-05-01T14:53:56.978Z,96059.28
2023-05-01T14:56:25.591Z,96056.38
2023-05-01T14:58:55.248Z,96064.19
2023-05-01T15:01:23.616Z,96066.69
2023-05-01T15:03:53.206Z,96063.03
2023-05-01T15:06:21.648Z,96074.28
2023-05-01T15:08:49.937Z,96060.06
2023-05-01T15:11:18.725Z,96062.69
2023-05-01T15:13:47.235Z,96056.84
2023-05-01T15:16:17.075Z,96065.25
2023-05-01T15:18:45.456Z,96073.34
2023-05-01T15:21:13.665Z,96060.34
2023-05-01T15:23:45.150Z,96066.53
2023-05-01T15:26:13.899Z,96068.19
2023-05-01T15:28:42.158Z,96069.31
2023-05-01T15:31:10.382Z,96063.63
2023-05-01T15:33:40.144Z,96069.25
2023-05-01T15:36:08.722Z,96068.28
2023-05-01T15:38:36.943Z,96072.06
2023-05-01T15:41:05.528Z,96072.16
2023-05-01T15:43:33.766Z,96071.97
2023-05-01T15:46:02.003Z,96069.22
2023-05-01T15:48:30.281Z,96077.81
2023-05-01T15:50:59.933Z,96072.97
2023-05-01T15:53:28.314Z,96073.47
2023-05-01T15:55:58.475Z,96073.47
2023-05-01T15:58:26.725Z,96072.66
2023-05-01T16:00:55.025Z,96079.44
2023-05-01T16:03:23.459Z,96080.59
2023-05-01T16:05:52.273Z,96081.31
2023-05-01T16:08:21.853Z,96081.41
2023-05-01T16:10:50.223Z,96083.06
2023-05-01T16:13:18.489Z,96077.91
2023-05-01T16:15:47.022Z,96082.34
2023-05-01T16:18:20.116Z,96067.94
2023-05-01T16:20:48.416Z,96077.44
2023-05-01T16:23:16.686Z,96074.69
2023-05-01T16:25:46.319Z,96085.19
2023-05-01T16:28:15.671Z,96079.97
2023-05-01T16:30:44.141Z,96083.63
2023-05-01T16:33:18.864Z,96089.69
2023-05-01T16:35:48.613Z,96092.78
2023-05-01T16:38:17.088Z,96087.50
2023-05-01T16:40:48.076Z,96085.88
2023-05-01T16:43:16.910Z,96089.09
2023-05-01T16:45:46.698Z,96092.69
2023-05-01T16:48:24.856Z,96084.66
2023-05-01T16:50:53.146Z,96086.69
2023-05-01T16:53:21.437Z,96089.38
2023-05-01T16:55:51.025Z,96086.72
2023-05-01T16:58:19.299Z,96089.38
2023-05-01T17:00:47.499Z,96088.97
2023-05-01T17:03:16.160Z,96085.59
2023-05-01T17:05:44.474Z,96090.31
2023-05-01T17:08:12.805Z,96086.97
2023-05-01T17:10:41.079Z,96089.84
2023-05-01T17:13:10.965Z,96093.09
2023-05-01T17:15:39.208Z,96093.44
2023-05-01T17:18:07.537Z,96100.25
2023-05-01T17:20:35.881Z,96094.72
2023-05-01T17:23:04.357Z,96097.38
2023-05-01T17:25:32.628Z,96103.41
2023-05-01T17:28:00.865Z,96104.94
2023-05-01T17:30:30.486Z,96105.72
2023-05-01T17:32:58.873Z,96114.19
2023-05-01T17:35:27.362Z,96125.66
2023-05-01T17:37:56.299Z,96126.06
2023-05-01T17:40:24.618Z,96132.34
2023-05-01T17:42:52.908Z,96128.16
2023-05-01T17:45:21.286Z,96132.25
2023-05-01T17:47:52.809Z,96137.25
2023-05-01T17:50:21.424Z,96143.25
2023-05-01T17:52:49.757Z,96132.50
2023-05-01T17:55:18.602Z,96137.63
2023-05-01T17:57:47.489Z,96143.81
2023-05-01T18:00:16.567Z,96139.88
2023-05-01T18:02:46.479Z,96150.69
2023-05-01T18:05:16.422Z,96145.47
2023-05-01T18:07:44.725Z,96149.28
2023-05-01T18:10:13.179Z,96150.84
2023-05-01T18:12:41.455Z,96150.47
2023-05-01T18:15:10.681Z,96155.94
2023-05-01T18:17:39.000Z,96158.06
2023-05-01T18:20:08.594Z,96151.09
2023-05-01T18:22:38.169Z,96154.94
2023-05-01T18:25:07.459Z,96154.09
2023-05-01T18:27:37.443Z,96162.34
2023-05-01T18:30:06.362Z,96168.66
2023-05-01T18:32:46.967Z,96165.59
2023-05-01T18:35:17.062Z,96169.41
2023-05-01T18:37:47.066Z,96170.75
2023-05-01T18:40:15.395Z,96174.09
2023-05-01T18:42:43.904Z,96175.38
2023-05-01T18:45:12.260Z,96175.69
2023-05-01T18:47:40.745Z,96180.03
2023-05-01T18:50:11.296Z,96184.41
2023-05-01T18:52:39.656Z,96187.19
2023-05-01T18:55:11.358Z,96191.94
2023-05-01T18:57:41.771Z,96201.25
2023-05-01T19:00:11.101Z,96204.44
2023-05-01T19:02:39.437Z,96202.06
2023-05-01T19:05:08.829Z,96204.25
2023-05-01T19:07:37.435Z,96206.84
2023-05-01T19:10:06.321Z,96206.59
2023-05-01T19:12:35.967Z,96211.28
2023-05-01T19:15:04.356Z,96208.75
2023-05-01T19:17:33.918Z,96202.47
2023-05-01T19:20:04.652Z,96203.78
2023-05-01T19:22:32.977Z,96219.28
2023-05-01T19:25:01.232Z,96216.56
2023-05-01T19:27:29.547Z,96219.84
2023-05-01T19:30:01.204Z,96219.56
2023-05-01T19:32:29.920Z,96224.47
2023-05-01T19:34:58.232Z,96218.56
2023-05-01T19:37:27.593Z,96217.41
2023-05-01T19:39:56.196Z,96219.19
2023-05-01T19:42:24.807Z,96222.09
2023-05-01T19:44:53.078Z,96220.00
2023-05-01T19:47:22.804Z,96218.78
2023-05-01T19:49:51.105Z,96223.19
2023-05-01T19:52:19.590Z,96224.00
2023-05-01T19:54:47.892Z,96221.75
2023-05-01T19:57:16.495Z,96222.41
2023-05-01T19:59:44.970Z,96233.00
2023-05-01T20:02:13.279Z,96229.28
2023-05-01T20:04:42.974Z,96231.88
2023-05-01T20:07:11.331Z,96228.25
2023-05-01T20:09:39.645Z,96235.28
2023-05-01T20:12:07.945Z,96234.31
2023-05-01T20:14:36.282Z,96237.88
2023-05-01T20:17:06.263Z,96228.63
2023-05-01T20:19:34.676Z,96234.50
2023-05-01T20:22:04.319Z,96237.41
2023-05-01T20:24:32.600Z,96243.31
2023-05-01T20:27:01.113Z,96239.81
2023-05-01T20:29:29.323Z,96244.63
2023-05-01T20:31:57.640Z,96239.19
2023-05-01T20:34:26.183Z,96239.50
2023-05-01T20:36:54.523Z,96243.47
2023-05-01T20:39:24.247Z,96248.53
2023-05-01T20:41:52.710Z,96245.22
2023-05-01T20:44:20.927Z,96252.09
2023-05-01T20:46:49.241Z,96245.47
2023-05-01T20:49:17.520Z,96249.94
2023-05-01T20:51:45.713Z,96249.34
2023-05-01T20:54:14.007Z,96250.44
2023-05-01T20:56:43.668Z,96254.81
2023-05-01T20:59:12.031Z,96257.69
2023-05-01T21:01:40.371Z,96267.97
2023-05-01T21:04:08.767Z,96264.28
2023-05-01T21:06:37.152Z,96271.22
2023-05-01T21:09:06.248Z,96271.25
2023-05-01T21:11:34.507Z,96278.25
2023-05-01T21:14:04.109Z,96278.44
2023-05-01T21:16:32.646Z,96266.31
2023-05-01T21:19:01.008Z,96277.44
2023-05-01T21:21:29.281Z,96274.75
2023-05-01T21:23:57.560Z,96273.94
2023-05-01T21:26:26.074Z,96278.84
2023-05-01T21:28:54.277Z,96271.84
2023-05-01T21:31:27.261Z,96273.88
2023-05-01T21:33:58.117Z,96276.44
2023-05-01T21:36:26.403Z,96282.81
2023-05-01T21:38:54.978Z,96283.41
2023-05-01T21:41:23.390Z,96284.84
2023-05-01T21:43:51.664Z,96284.47
2023-05-01T21:46:20.543Z,96291.22
2023-05-01T21:48:52.488Z,96292.88
2023-05-01T21:51:26.933Z,96286.28
2023-05-01T21:53:55.399Z,96292.03
2023-05-01T21:56:23.746Z,96305.66
2023-05-01T21:58:52.256Z,96304.19
2023-05-01T22:01:23.503Z,96311.84
2023-05-01T22:03:53.261Z,96317.81
2023-05-01T22:06:24.232Z,96317.41
2023-05-01T22:08:53.008Z,96325.50
2023-05-01T22:11:24.472Z,96323.69
2023-05-01T22:13:52.810Z,96325.81
2023-05-01T22:16:21.066Z,96323.09
2023-05-01T22:18:53.810Z,96327.28
2023-05-01T22:21:23.947Z,96329.06
2023-05-01T22:23:52.250Z,96326.53
2023-05-01T22:26:20.490Z,96330.22
2023-05-01T22:28:49.785Z,96330.72
2023-05-01T22:31:18.169Z,96337.16
2023-05-01T22:33:46.467Z,96334.00
2023-05-01T22:36:14.906Z,96341.16
2023-05-01T22:38:44.542Z,96331.00
2023-05-01T22:41:12.856Z,96332.22
2023-05-01T22:43:41.150Z,96334.81
2023-05-01T22:46:09.404Z,96337.50
2023-05-01T22:48:37.717Z,96335.44
2023-05-01T22:51:06.638Z,96344.97
2023-05-01T22:53:34.995Z,96332.81
2023-05-01T22:56:04.975Z,96340.00
2023-05-01T22:58:33.328Z,96331.19
2023-05-01T23:01:01.805Z,96341.91
2023-05-01T23:03:31.418Z,96330.28
2023-05-01T23:05:59.701Z,96339.53
2023-05-01T23:08:28.313Z,96337.75
2023-05-01T23:10:56.671Z,96338.03
2023-05-01T23:13:27.363Z,96341.44
2023-05-01T23:15:55.728Z,96337.13
2023-05-01T23:18:25.620Z,96336.53
2023-05-01T23:20:55.567Z,96335.50
2023-05-01T23:23:24.079Z,96340.91
2023-05-01T23:25:52.894Z,96338.31
2023-05-01T23:28:22.118Z,96338.28
2023-05-01T23:30:56.512Z,96341.81
2023-05-01T23:33:26.453Z,96331.38
2023-05-01T23:35:54.726Z,96341.22
2023-05-01T23:38:23.278Z,96336.69
2023-05-01T23:40:51.684Z,96335.00
2023-05-01T23:43:20.032Z,96343.53
2023-05-01T23:45:48.284Z,96342.72
2023-05-01T23:48:17.860Z,96338.13
2023-05-01T23:50:46.358Z,96344.34
2023-05-01T23:53:14.573Z,96336.69
2023-05-01T23:55:45.265Z,96333.78
2023-05-01T23:58:14.853Z,96340.84
